Airfield :
LOGIN :

Register | Disclaimer

   EN    FR    IT 

 










Legend :    VFR   Marginal VFR   IFR   Intensive IFR   Very Intensive IFR
Visi :
Ceiling :
>= 8 km
>= 3000ft
5 to 8 km
1000 to 3000 ft
1500m to 5 km
500 to 1000 ft
800 to 1500m
200 to 500 ft
< 800m
< 200 ft
Symbols :   Thunderstorms  Fog  Heavy snow  Heavy precipitations  Wind > 20 kt
SIGMETs :     Misc.  Thunderstorms  Icing  Turbulence  Mountain Waves  Volcanic Ashes







- Airport Elevation : 17 ft
- IATA code : GRQ


EHGG - Groningen Eelde

CURRENT METAR :
  • 181555Z AUTO 27011KT 230V290 9999 NCD 04/02 Q0996 TEMPO 7000 -SHRA FEW015CB

EXPIRED METARs :
  • 181525Z AUTO 27012KT 240V300 9999 SCT017 BKN020 BKN025 05/02 Q0996 TEMPO 7000 -SHRA FEW015CB
  • 181455Z AUTO 29012KT 260V330 9999 SCT018 BKN021 BKN027 04/02 Q0995 REDZ TEMPO 7000 -SHRA FEW015CB
  • 181425Z AUTO 29011KT 260V320 9999 NSC 04/02 Q0995 TEMPO 7000 SHRA FEW015CB
  • 181355Z AUTO 30013KT 260V320 9999 FEW012/// BKN021/// BKN025/// 04/02 Q0994 TEMPO 7000 SHRA BKN015 FEW015CB
  • 181325Z AUTO 31016KT 9999 FEW010 SCT015 BKN020 04/03 Q0993 REUP TEMPO 7000 -SHRA BKN015 FEW015CB
  • 181255Z AUTO 32022KT 9999 -RA FEW012 SCT015 BKN019 04/02 Q0991 TEMPO 7000 -SHRA BKN015 FEW015CB

TAF TAF EHGG
Valid from the 18 at 12:00 until the 19 at 18:00 UTC


181108Z 1812/1918 30038G52KT 9999 BKN015
BECMG 1812/1815 28015G30KT
PROB30
TEMPO 1812/1813 6000 -RADZ BKN009
TEMPO 1813/1918 6000 -SHRA SCT015CB
BECMG 1816/1819 27010KT
PROB30
TEMPO 1818/1903 4000 SHRASN TSRAGS BKN008 SCT015CB
BECMG 1821/1824 23006KT
PROB30
TEMPO 1903/1912 2000 SHRAGSSN BKN004 SCT012CB
BECMG 1909/1912 26013KT
No reported NOTAMs for that airfield.



MET'MAP, your aeronautical weather chart ! - Copyright ORBIFLY December 2007 - Disclaimer

ORBIFLY MET'MAP TEAM :

Programming & Development : Alexandra Zaïnal
Concept & Development : Baudouin d'Aumeries
Co-Development & Prog : Marc-Olivier Méhu
Technical & hardware support : Manuel Goepfert

Contact : metmap@orbifly.com




SOURCES & CREDITS :

   NOAA